Time;durP1;ratioP1;P1;durP2;ratioP2;P2;SDS_P1;SDS_P2;PMS_P1;PMS_P2;Temp;Humidity;BMP_temperature;BMP_pressure;BME280_temperature;BME280_humidity;BME280_pressure;Samples;Min_cycle;Max_cycle;Signal;HPM_P1;HPM_P2
2023/10/03 00:00:27;;;;;;;16.40;11.60;;;20.10;99.90;;;;;;5081456;28;20487;-64
2023/10/03 00:02:57;;;;;;;19.67;11.93;;;20.10;99.90;;;;;;5103369;28;20574;-64
2023/10/03 00:05:24;;;;;;;19.00;11.57;;;20.10;99.90;;;;;;5105087;28;20432;-64
2023/10/03 00:07:51;;;;;;;16.73;10.77;;;20.10;99.90;;;;;;5104210;28;20421;-64
2023/10/03 00:10:21;;;;;;;17.60;12.03;;;20.10;99.90;;;;;;5104794;28;20514;-64
2023/10/03 00:12:48;;;;;;;18.80;12.37;;;20.10;99.90;;;;;;5104166;28;20429;-64
2023/10/03 00:15:25;;;;;;;20.37;12.07;;;20.10;99.90;;;;;;5104665;28;20425;-64
2023/10/03 00:17:53;;;;;;;22.40;13.33;;;20.10;99.90;;;;;;5101122;28;21018;-64
2023/10/03 00:20:19;;;;;;;23.77;12.30;;;20.10;99.90;;;;;;5105017;28;20448;-64
2023/10/03 00:22:46;;;;;;;22.73;12.73;;;20.10;99.90;;;;;;5103936;28;20457;-63
2023/10/03 00:25:18;;;;;;;19.13;12.23;;;20.10;99.90;;;;;;5104293;28;20448;-64
2023/10/03 00:27:49;;;;;;;20.53;11.50;;;20.10;99.90;;;;;;5103577;28;20436;-64
2023/10/03 00:30:15;;;;;;;18.70;12.03;;;20.10;99.90;;;;;;5104702;28;20556;-64
2023/10/03 00:32:44;;;;;;;18.20;11.43;;;20.10;99.90;;;;;;5102731;28;20456;-64
2023/10/03 00:35:11;;;;;;;18.93;11.77;;;20.10;99.90;;;;;;5104040;28;20420;-65
2023/10/03 00:37:37;;;;;;;19.07;11.73;;;20.10;99.90;;;;;;5103580;28;20472;-65
2023/10/03 00:42:54;;;;;;;19.90;11.90;;;20.20;99.90;;;;;;5102389;28;20463;-64
2023/10/03 00:45:21;;;;;;;21.20;12.50;;;20.20;99.90;;;;;;5104082;28;20800;-64
2023/10/03 00:47:54;;;;;;;21.27;12.20;;;20.20;99.90;;;;;;5103704;28;20463;-64
2023/10/03 00:50:25;;;;;;;23.13;12.67;;;20.20;99.90;;;;;;5103776;28;20902;-64
2023/10/03 00:52:57;;;;;;;23.10;12.80;;;20.20;99.90;;;;;;5103434;28;20503;-64
2023/10/03 00:55:26;;;;;;;22.97;13.37;;;20.20;99.90;;;;;;5103638;28;20440;-65
2023/10/03 01:00:42;;;;;;;20.33;12.17;;;20.20;99.90;;;;;;5102867;28;20425;-64
2023/10/03 01:03:32;;;;;;;27.90;13.30;;;20.20;99.90;;;;;;5103728;28;20783;-65
2023/10/03 01:06:09;;;;;;;22.33;13.00;;;20.20;99.90;;;;;;5103595;28;20429;-64
2023/10/03 01:08:37;;;;;;;24.07;13.03;;;20.20;99.90;;;;;;5102936;28;20429;-64
2023/10/03 01:11:07;;;;;;;25.23;13.33;;;20.20;99.90;;;;;;5103541;28;20473;-64
2023/10/03 01:13:38;;;;;;;21.97;12.23;;;20.20;99.90;;;;;;5103196;28;20486;-65
2023/10/03 01:16:05;;;;;;;19.27;12.90;;;20.20;99.90;;;;;;5103713;28;20429;-63
2023/10/03 01:18:32;;;;;;;20.00;12.93;;;20.20;99.90;;;;;;5102821;28;20472;-64
2023/10/03 01:21:05;;;;;;;19.90;11.83;;;20.30;99.90;;;;;;5103576;28;20429;-64
2023/10/03 01:23:35;;;;;;;21.17;12.70;;;20.20;99.90;;;;;;5103268;28;20429;-64
2023/10/03 01:26:03;;;;;;;21.00;12.47;;;20.30;99.90;;;;;;5103454;28;20413;-64
2023/10/03 01:28:29;;;;;;;19.93;12.40;;;20.30;99.90;;;;;;5103352;28;20467;-62
2023/10/03 01:30:54;;;;;;;16.90;11.40;;;20.30;99.90;;;;;;5103226;28;20560;-64
2023/10/03 01:33:26;;;;;;;22.97;13.30;;;20.30;99.90;;;;;;5103130;28;20608;-65
2023/10/03 01:35:55;;;;;;;21.60;12.80;;;20.30;99.90;;;;;;5102009;28;20183;-64
2023/10/03 01:38:22;;;;;;;19.80;11.97;;;20.30;99.90;;;;;;5103518;28;20425;-64
2023/10/03 01:40:58;;;;;;;20.10;12.27;;;20.40;99.90;;;;;;5102532;28;20932;-64
2023/10/03 01:43:24;;;;;;;19.33;11.53;;;20.40;99.90;;;;;;5103153;28;20460;-65
2023/10/03 01:45:50;;;;;;;17.20;11.00;;;20.40;99.90;;;;;;5102769;28;20490;-64
2023/10/03 01:48:18;;;;;;;19.63;11.97;;;20.40;99.90;;;;;;5103991;28;20422;-64
2023/10/03 01:50:44;;;;;;;18.50;12.17;;;20.40;99.90;;;;;;5102921;28;20219;-65
2023/10/03 01:53:11;;;;;;;19.90;11.77;;;20.40;99.90;;;;;;5103767;28;20514;-64
2023/10/03 01:55:37;;;;;;;23.03;11.30;;;20.50;99.90;;;;;;5102218;28;20942;-64
2023/10/03 01:58:05;;;;;;;21.10;12.30;;;20.50;99.90;;;;;;5085572;28;20753;-64
2023/10/03 02:00:31;;;;;;;20.13;11.37;;;20.50;99.90;;;;;;5102910;28;20441;-63
2023/10/03 02:03:04;;;;;;;19.07;10.73;;;20.50;99.90;;;;;;5103499;28;20765;-64
2023/10/03 02:05:34;;;;;;;16.33;10.30;;;20.50;99.90;;;;;;5103039;28;20437;-64
2023/10/03 02:08:15;;;;;;;23.60;11.90;;;20.50;99.90;;;;;;5103483;28;20440;-64
2023/10/03 02:10:45;;;;;;;17.60;10.93;;;20.50;99.90;;;;;;5102605;28;21163;-65
2023/10/03 02:13:14;;;;;;;19.57;11.10;;;20.50;99.90;;;;;;5103091;28;20449;-64
2023/10/03 02:15:45;;;;;;;15.57;10.03;;;20.50;99.90;;;;;;5094598;28;20421;-64
2023/10/03 02:18:16;;;;;;;17.50;10.90;;;20.50;99.90;;;;;;5103246;28;20429;-64
2023/10/03 02:20:47;;;;;;;19.00;11.33;;;20.50;99.90;;;;;;5095313;28;20474;-64
2023/10/03 02:23:23;;;;;;;17.60;10.13;;;20.50;99.90;;;;;;5099139;28;20421;-64
2023/10/03 02:25:49;;;;;;;21.57;11.87;;;20.50;99.90;;;;;;5101907;28;20421;-64
2023/10/03 02:28:19;;;;;;;16.97;11.27;;;20.50;99.90;;;;;;5103062;28;20530;-64
2023/10/03 02:30:47;;;;;;;18.00;11.20;;;20.60;99.90;;;;;;5083743;28;21357;-64
2023/10/03 02:33:13;;;;;;;16.80;10.50;;;20.60;99.90;;;;;;5103011;28;20434;-64
2023/10/03 02:35:46;;;;;;;15.53;10.03;;;20.60;99.90;;;;;;5101543;28;20418;-64
2023/10/03 02:38:29;;;;;;;17.60;10.73;;;20.60;99.90;;;;;;5102666;28;20843;-64
2023/10/03 02:40:56;;;;;;;16.23;11.23;;;20.60;99.90;;;;;;5096257;28;20429;-65
2023/10/03 02:43:23;;;;;;;17.50;10.10;;;20.70;99.90;;;;;;5102663;28;20430;-64
2023/10/03 02:45:48;;;;;;;18.67;12.30;;;20.70;99.90;;;;;;5102040;28;20432;-64
2023/10/03 02:48:15;;;;;;;17.23;11.47;;;20.70;99.90;;;;;;5106208;28;20767;-65
2023/10/03 02:50:46;;;;;;;16.93;11.60;;;20.70;99.90;;;;;;5105520;28;20215;-64
2023/10/03 02:53:17;;;;;;;20.77;11.20;;;20.70;99.90;;;;;;5106615;28;20426;-64
2023/10/03 02:55:43;;;;;;;17.53;11.30;;;20.70;99.90;;;;;;5105577;28;21676;-64
2023/10/03 02:58:09;;;;;;;18.63;11.50;;;20.70;99.90;;;;;;5106735;28;20421;-63
2023/10/03 03:00:37;;;;;;;18.83;11.43;;;20.70;99.90;;;;;;5105438;28;20215;-64
2023/10/03 03:03:06;;;;;;;19.30;12.37;;;20.70;99.90;;;;;;5106511;28;20913;-63
2023/10/03 03:05:36;;;;;;;18.03;11.50;;;20.60;99.90;;;;;;5104995;28;20440;-64
2023/10/03 03:08:11;;;;;;;21.13;12.63;;;20.60;99.90;;;;;;5105908;28;20418;-64
2023/10/03 03:10:40;;;;;;;16.90;10.80;;;20.60;99.90;;;;;;5104874;28;20471;-64
2023/10/03 03:13:08;;;;;;;15.80;10.70;;;20.60;99.90;;;;;;5106690;28;20426;-64
2023/10/03 03:15:36;;;;;;;16.47;10.43;;;20.60;99.90;;;;;;5104761;28;20491;-64
2023/10/03 03:18:03;;;;;;;19.20;11.43;;;20.60;99.90;;;;;;5086244;28;20422;-64
2023/10/03 03:20:36;;;;;;;16.23;9.60;;;20.60;99.90;;;;;;5087051;28;20433;-64
2023/10/03 03:23:03;;;;;;;17.67;11.07;;;20.60;99.90;;;;;;5106327;28;20939;-64
2023/10/03 03:25:36;;;;;;;16.80;10.50;;;20.70;99.90;;;;;;5105006;28;20554;-64
2023/10/03 03:28:15;;;;;;;13.90;9.23;;;20.60;99.90;;;;;;5100408;28;20436;-64
2023/10/03 03:30:48;;;;;;;18.53;10.97;;;20.70;99.90;;;;;;5100688;28;20516;-64
2023/10/03 03:33:20;;;;;;;15.93;10.13;;;20.70;99.90;;;;;;5106252;28;20422;-64
2023/10/03 03:35:50;;;;;;;18.33;10.33;;;20.70;99.90;;;;;;5103059;28;20979;-64
2023/10/03 03:38:20;;;;;;;16.20;9.00;;;20.80;99.90;;;;;;5105463;28;20429;-64
2023/10/03 03:40:47;;;;;;;16.90;9.50;;;20.70;99.90;;;;;;5104964;28;20437;-64
2023/10/03 03:43:16;;;;;;;13.57;9.63;;;20.80;99.90;;;;;;5105474;28;20418;-64
2023/10/03 03:45:45;;;;;;;16.83;8.97;;;20.80;99.90;;;;;;5096255;28;20461;-64
2023/10/03 03:48:13;;;;;;;16.77;9.80;;;20.80;99.90;;;;;;5105271;28;20430;-65
2023/10/03 03:50:39;;;;;;;15.70;10.13;;;20.90;99.90;;;;;;5104077;28;20499;-64
2023/10/03 03:53:06;;;;;;;15.40;10.20;;;20.90;99.90;;;;;;5105482;28;20434;-64
2023/10/03 03:55:35;;;;;;;20.33;9.93;;;21.00;99.90;;;;;;5104004;28;20421;-64
2023/10/03 03:58:05;;;;;;;16.47;9.80;;;21.00;99.90;;;;;;5104602;28;20437;-64
2023/10/03 04:00:32;;;;;;;16.30;9.10;;;21.00;99.90;;;;;;5104286;28;20475;-65
2023/10/03 04:03:00;;;;;;;17.30;9.97;;;21.10;99.90;;;;;;5105486;28;21197;-65
2023/10/03 04:05:27;;;;;;;19.53;10.43;;;21.00;99.90;;;;;;5104116;28;20457;-64
2023/10/03 04:07:54;;;;;;;16.20;8.97;;;21.10;99.90;;;;;;5104766;28;20430;-65
2023/10/03 04:10:21;;;;;;;13.53;9.10;;;21.10;99.90;;;;;;5104831;28;20460;-64
2023/10/03 04:12:49;;;;;;;14.60;9.30;;;21.00;99.90;;;;;;5103968;28;21300;-64
2023/10/03 04:15:15;;;;;;;15.83;8.60;;;21.00;99.90;;;;;;5104787;28;21065;-64
2023/10/03 04:17:44;;;;;;;15.57;9.43;;;21.00;99.90;;;;;;5103887;28;20478;-65
2023/10/03 04:22:55;;;;;;;14.70;9.60;;;21.00;99.90;;;;;;5098873;28;20422;-64
2023/10/03 04:25:21;;;;;;;18.10;9.70;;;21.10;99.90;;;;;;5104128;28;20487;-64
2023/10/03 04:27:48;;;;;;;14.00;9.93;;;21.00;99.90;;;;;;5104553;28;20207;-65
2023/10/03 04:30:15;;;;;;;16.23;9.77;;;21.00;99.90;;;;;;5104109;28;20990;-65
2023/10/03 04:32:42;;;;;;;13.60;9.50;;;21.00;99.90;;;;;;5095609;28;20428;-64
2023/10/03 04:35:11;;;;;;;14.23;9.37;;;21.10;99.90;;;;;;5104530;28;20421;-64
2023/10/03 04:37:39;;;;;;;14.90;9.00;;;21.00;99.90;;;;;;5103194;28;20430;-64
2023/10/03 04:40:06;;;;;;;14.60;9.30;;;21.00;99.90;;;;;;5104653;28;20486;-64
2023/10/03 04:42:32;;;;;;;16.67;10.00;;;21.00;99.90;;;;;;5102042;28;20520;-65
2023/10/03 04:44:58;;;;;;;15.53;8.87;;;21.10;99.90;;;;;;5104465;28;21198;-64
2023/10/03 04:47:27;;;;;;;14.17;9.27;;;21.10;99.90;;;;;;5103613;28;20436;-64
2023/10/03 04:49:52;;;;;;;15.37;10.30;;;21.10;99.90;;;;;;5104271;28;20236;-64
2023/10/03 04:52:18;;;;;;;14.53;8.83;;;21.00;99.90;;;;;;5103556;28;20430;-65
2023/10/03 04:54:44;;;;;;;14.47;9.27;;;21.00;99.90;;;;;;5103376;28;20278;-64
2023/10/03 04:57:11;;;;;;;14.67;9.00;;;20.90;99.90;;;;;;5103942;28;20180;-64
2023/10/03 04:59:36;;;;;;;17.63;9.97;;;21.00;99.90;;;;;;5103203;28;20278;-64
2023/10/03 05:02:03;;;;;;;13.80;9.20;;;20.90;99.90;;;;;;5103956;28;20474;-64
2023/10/03 05:04:28;;;;;;;16.43;10.00;;;20.90;99.90;;;;;;5102815;28;20183;-64
2023/10/03 05:06:54;;;;;;;13.20;8.90;;;20.80;99.90;;;;;;5103909;28;20444;-63
2023/10/03 05:09:20;;;;;;;15.00;9.90;;;20.90;99.90;;;;;;5103488;28;20232;-65
2023/10/03 05:11:48;;;;;;;16.80;8.63;;;20.90;99.90;;;;;;5103307;28;20207;-65
2023/10/03 05:14:17;;;;;;;15.90;9.77;;;20.90;99.90;;;;;;5103691;28;21010;-64
2023/10/03 05:16:43;;;;;;;13.77;9.00;;;20.90;99.90;;;;;;5095325;28;20433;-65
2023/10/03 05:19:09;;;;;;;16.10;10.00;;;20.90;99.90;;;;;;5085401;28;20442;-65
2023/10/03 05:21:37;;;;;;;13.90;9.37;;;20.80;99.90;;;;;;5102936;28;20196;-65
2023/10/03 05:24:03;;;;;;;15.80;8.77;;;20.80;99.90;;;;;;5103828;28;20476;-65
2023/10/03 05:26:29;;;;;;;12.93;8.50;;;20.80;99.90;;;;;;5102815;28;20448;-65
2023/10/03 05:28:55;;;;;;;10.93;8.20;;;20.80;99.90;;;;;;5103542;28;20429;-65
2023/10/03 05:31:23;;;;;;;13.87;8.40;;;20.80;99.90;;;;;;5102322;28;20211;-65
2023/10/03 05:33:49;;;;;;;12.90;8.23;;;20.70;99.90;;;;;;5103070;28;20958;-65
2023/10/03 05:36:18;;;;;;;13.00;8.93;;;20.80;99.90;;;;;;5103200;28;20486;-65
2023/10/03 05:38:45;;;;;;;12.93;8.83;;;20.80;99.90;;;;;;5103696;28;20761;-64
2023/10/03 05:41:21;;;;;;;13.90;9.00;;;20.70;99.90;;;;;;5103487;28;20440;-65
2023/10/03 05:43:50;;;;;;;15.13;9.47;;;20.80;99.90;;;;;;5100892;28;20417;-64
2023/10/03 05:46:15;;;;;;;15.90;8.50;;;20.70;99.90;;;;;;5103296;28;20949;-64
2023/10/03 05:48:43;;;;;;;15.10;9.70;;;20.70;99.90;;;;;;5102808;28;20433;-64
2023/10/03 05:51:09;;;;;;;15.73;8.83;;;20.80;99.90;;;;;;5082981;28;20211;-64
2023/10/03 05:53:35;;;;;;;14.17;9.40;;;20.70;99.90;;;;;;5080781;28;20450;-64
2023/10/03 05:56:04;;;;;;;22.10;9.23;;;20.70;99.90;;;;;;5079165;28;20426;-65
2023/10/03 05:58:30;;;;;;;12.77;8.30;;;20.80;99.90;;;;;;5082162;28;20441;-65
2023/10/03 06:00:56;;;;;;;13.67;8.93;;;20.70;99.90;;;;;;5080723;28;20443;-65
2023/10/03 06:03:21;;;;;;;11.43;8.00;;;20.80;99.90;;;;;;5077460;28;20435;-64
2023/10/03 06:05:47;;;;;;;14.10;8.33;;;20.80;99.90;;;;;;5082590;28;20184;-65
2023/10/03 06:08:13;;;;;;;14.53;8.67;;;20.80;99.90;;;;;;5079656;28;20184;-64
2023/10/03 06:10:39;;;;;;;16.40;9.10;;;20.70;99.90;;;;;;5082223;28;20203;-64
2023/10/03 06:13:11;;;;;;;16.53;9.27;;;20.70;99.90;;;;;;5080702;28;20238;-64
2023/10/03 06:15:43;;;;;;;12.33;8.10;;;20.70;99.90;;;;;;5078822;28;20836;-64
2023/10/03 06:18:08;;;;;;;13.63;8.90;;;20.80;99.90;;;;;;5082173;28;20859;-65
2023/10/03 06:20:35;;;;;;;12.03;8.37;;;20.70;99.90;;;;;;5081740;28;20443;-64
2023/10/03 06:23:04;;;;;;;11.87;7.60;;;20.70;99.90;;;;;;5085981;28;20186;-64
2023/10/03 06:25:31;;;;;;;16.07;8.47;;;20.70;99.90;;;;;;5083288;28;20442;-64
2023/10/03 06:27:59;;;;;;;12.73;8.40;;;20.70;99.90;;;;;;5086486;28;20780;-65
2023/10/03 06:30:26;;;;;;;11.80;7.57;;;20.60;99.90;;;;;;5085149;28;20450;-64
2023/10/03 06:32:51;;;;;;;13.40;8.73;;;20.70;99.90;;;;;;5086478;28;20442;-64
2023/10/03 06:35:18;;;;;;;15.07;9.10;;;20.60;99.90;;;;;;5077635;28;20468;-64
2023/10/03 06:37:43;;;;;;;17.20;8.17;;;20.60;99.90;;;;;;5081810;28;20180;-65
2023/10/03 06:40:13;;;;;;;12.80;8.07;;;20.60;99.90;;;;;;5086217;28;20429;-64
2023/10/03 06:42:40;;;;;;;12.20;7.70;;;20.60;99.90;;;;;;5085508;28;20457;-65
2023/10/03 06:45:09;;;;;;;10.03;6.93;;;20.60;99.90;;;;;;5086002;28;20429;-65
2023/10/03 06:47:36;;;;;;;11.53;7.37;;;20.50;99.90;;;;;;5083150;28;20607;-64
2023/10/03 06:50:05;;;;;;;11.70;7.97;;;20.50;99.90;;;;;;5085905;28;20845;-64
2023/10/03 06:52:32;;;;;;;12.63;8.07;;;20.50;99.90;;;;;;5085633;28;20496;-64
2023/10/03 06:54:59;;;;;;;10.23;7.03;;;20.50;99.90;;;;;;5086179;28;20437;-64
2023/10/03 06:57:24;;;;;;;11.20;7.27;;;20.50;99.90;;;;;;5084989;28;20805;-65
2023/10/03 06:59:50;;;;;;;9.37;7.30;;;20.50;99.90;;;;;;5086071;28;20418;-64
2023/10/03 07:02:18;;;;;;;12.50;7.50;;;20.40;99.90;;;;;;5085143;28;20184;-64
2023/10/03 07:04:44;;;;;;;10.20;7.37;;;20.40;99.90;;;;;;5085667;28;20969;-65
2023/10/03 07:07:10;;;;;;;10.63;7.10;;;20.40;99.90;;;;;;5085907;28;20469;-64
2023/10/03 07:09:38;;;;;;;13.63;6.80;;;20.30;99.90;;;;;;5085634;28;20453;-64
2023/10/03 07:12:07;;;;;;;12.77;7.57;;;20.40;99.90;;;;;;5086037;28;20519;-64
2023/10/03 07:14:35;;;;;;;11.93;6.00;;;20.30;99.90;;;;;;5084743;28;20419;-64
2023/10/03 07:17:02;;;;;;;8.57;6.47;;;20.30;99.90;;;;;;5085778;28;21320;-63
2023/10/03 07:19:30;;;;;;;10.70;6.90;;;20.30;99.90;;;;;;5084910;28;20441;-63
2023/10/03 07:21:56;;;;;;;9.60;6.70;;;20.30;99.90;;;;;;5085709;28;20422;-63
2023/10/03 07:24:24;;;;;;;11.97;6.10;;;20.30;99.90;;;;;;5084860;28;20541;-63
2023/10/03 07:26:51;;;;;;;9.37;6.07;;;20.20;99.90;;;;;;5085496;28;20560;-64
2023/10/03 07:29:21;;;;;;;7.80;5.80;;;20.20;99.90;;;;;;5084800;28;20471;-64
2023/10/03 07:31:47;;;;;;;9.20;5.53;;;20.20;99.90;;;;;;5085409;28;20499;-64
2023/10/03 07:34:17;;;;;;;8.87;6.00;;;20.10;99.90;;;;;;5083807;28;20430;-64
2023/10/03 07:36:43;;;;;;;10.30;5.53;;;20.20;99.90;;;;;;5078529;28;20513;-64
2023/10/03 07:39:10;;;;;;;7.87;5.70;;;20.20;99.90;;;;;;5085364;28;20837;-63
2023/10/03 07:41:36;;;;;;;9.70;6.00;;;20.10;99.90;;;;;;5091008;28;20435;-64
2023/10/03 07:44:02;;;;;;;9.50;6.37;;;20.10;99.90;;;;;;5080042;28;20434;-64
2023/10/03 07:46:27;;;;;;;8.00;5.53;;;20.10;99.90;;;;;;5066148;28;20214;-64
2023/10/03 07:48:53;;;;;;;5.97;5.33;;;20.10;99.90;;;;;;5086752;28;20418;-64
2023/10/03 07:51:26;;;;;;;7.87;4.77;;;20.00;99.90;;;;;;5100377;28;20711;-64
2023/10/03 07:53:52;;;;;;;5.70;5.00;;;19.90;99.90;;;;;;5098811;28;20429;-64
2023/10/03 07:56:25;;;;;;;8.03;5.37;;;20.00;99.90;;;;;;5105224;28;20509;-64
2023/10/03 07:58:54;;;;;;;7.27;5.23;;;20.00;99.90;;;;;;5105479;28;20463;-64
2023/10/03 08:01:24;;;;;;;7.40;4.93;;;20.00;99.90;;;;;;5104152;28;20486;-64
2023/10/03 08:03:52;;;;;;;7.43;4.67;;;20.00;99.90;;;;;;5105126;28;20417;-64
2023/10/03 08:06:19;;;;;;;10.57;5.73;;;20.00;99.90;;;;;;5104213;28;20426;-64
2023/10/03 08:08:45;;;;;;;6.77;4.90;;;20.00;99.90;;;;;;5104981;28;20426;-64
2023/10/03 08:11:13;;;;;;;7.60;5.50;;;20.00;99.90;;;;;;5104471;28;20483;-63
2023/10/03 08:13:40;;;;;;;7.63;5.33;;;20.00;99.90;;;;;;5104894;28;20215;-64
2023/10/03 08:16:06;;;;;;;10.17;6.10;;;19.90;99.90;;;;;;5104830;28;20440;-64
2023/10/03 08:18:36;;;;;;;7.17;4.57;;;19.90;99.90;;;;;;5104568;28;21214;-64
2023/10/03 08:21:04;;;;;;;8.07;6.00;;;19.90;99.90;;;;;;5105001;28;20429;-64
2023/10/03 08:23:33;;;;;;;6.40;5.00;;;19.90;99.90;;;;;;5104124;28;20540;-64
2023/10/03 08:26:02;;;;;;;9.17;5.00;;;19.90;99.90;;;;;;5104475;28;20484;-64
2023/10/03 08:28:30;;;;;;;8.70;5.60;;;19.90;99.90;;;;;;5103827;28;20868;-64
2023/10/03 08:30:57;;;;;;;6.40;5.30;;;19.90;99.90;;;;;;5104520;28;20476;-64
2023/10/03 08:33:22;;;;;;;8.70;5.00;;;19.90;99.90;;;;;;5103886;28;20445;-64
2023/10/03 08:35:49;;;;;;;7.87;5.70;;;19.90;99.90;;;;;;5104391;28;20424;-64
2023/10/03 08:38:14;;;;;;;7.30;5.00;;;19.90;99.90;;;;;;5064641;28;20179;-64
2023/10/03 08:40:49;;;;;;;7.43;4.73;;;19.90;99.90;;;;;;5105008;28;20425;-64
2023/10/03 08:43:21;;;;;;;7.23;5.13;;;20.00;99.90;;;;;;5104555;28;20449;-64
2023/10/03 08:45:56;;;;;;;5.93;4.90;;;20.00;99.90;;;;;;5096471;28;21190;-64
2023/10/03 08:48:26;;;;;;;5.93;5.20;;;20.00;99.90;;;;;;5103298;28;20570;-64
2023/10/03 08:50:57;;;;;;;7.07;4.73;;;20.00;99.90;;;;;;5104645;28;20627;-64
2023/10/03 08:53:27;;;;;;;7.00;5.13;;;20.00;99.90;;;;;;5104326;28;20437;-64
2023/10/03 08:55:58;;;;;;;5.70;5.07;;;20.00;99.90;;;;;;5104829;28;20528;-64
2023/10/03 08:58:28;;;;;;;6.93;5.53;;;20.10;99.90;;;;;;5104264;28;20457;-64
2023/10/03 09:01:02;;;;;;;5.60;4.93;;;20.00;99.90;;;;;;5104918;28;20471;-64
2023/10/03 09:03:47;;;;;;;10.17;5.70;;;20.00;99.90;;;;;;5104081;28;20490;-64
2023/10/03 09:06:19;;;;;;;6.67;4.90;;;19.90;99.90;;;;;;5104090;28;20426;-64
2023/10/03 09:08:51;;;;;;;8.10;5.73;;;19.90;99.90;;;;;;5097040;28;20426;-65
2023/10/03 09:11:18;;;;;;;12.23;5.57;;;19.80;99.90;;;;;;5103866;28;20469;-64
2023/10/03 09:13:48;;;;;;;6.77;5.20;;;19.80;99.90;;;;;;5104801;28;20425;-64
2023/10/03 09:16:19;;;;;;;6.97;5.03;;;19.70;99.90;;;;;;5103751;28;20426;-64
2023/10/03 09:18:50;;;;;;;6.60;4.97;;;19.80;99.90;;;;;;5104375;28;20429;-64
2023/10/03 09:21:23;;;;;;;8.23;5.07;;;19.70;99.90;;;;;;5103479;28;20440;-64
2023/10/03 09:24:17;;;;;;;7.27;5.00;;;19.80;99.90;;;;;;5104258;28;20421;-67
2023/10/03 09:26:47;;;;;;;5.97;4.63;;;19.80;99.90;;;;;;5095846;28;20456;-64
2023/10/03 09:29:18;;;;;;;10.70;5.60;;;19.70;99.90;;;;;;5103402;28;20428;-63
2023/10/03 09:31:48;;;;;;;6.57;5.23;;;19.70;99.90;;;;;;5085466;28;20473;-64
2023/10/03 09:34:17;;;;;;;7.63;4.70;;;19.70;99.90;;;;;;5101993;28;20418;-64
2023/10/03 09:36:43;;;;;;;8.90;5.57;;;19.70;99.90;;;;;;5096079;28;20429;-64
2023/10/03 09:39:21;;;;;;;9.67;5.30;;;19.70;99.90;;;;;;5102993;28;20421;-64
2023/10/03 09:41:57;;;;;;;6.10;5.47;;;19.70;99.90;;;;;;5103422;28;20179;-64
2023/10/03 09:44:32;;;;;;;7.10;5.40;;;19.70;99.90;;;;;;5102749;28;20475;-64
2023/10/03 09:47:00;;;;;;;7.27;5.20;;;19.80;99.90;;;;;;5103194;28;20429;-64
2023/10/03 09:49:38;;;;;;;7.03;5.40;;;19.90;99.90;;;;;;5102581;28;21680;-64
2023/10/03 09:52:09;;;;;;;7.10;5.03;;;20.00;99.90;;;;;;5103025;28;20472;-63
2023/10/03 09:54:39;;;;;;;5.43;4.63;;;20.10;99.90;;;;;;5103320;28;20476;-63
2023/10/03 09:57:16;;;;;;;6.20;4.67;;;20.10;99.90;;;;;;5102163;28;20446;-63
2023/10/03 09:59:49;;;;;;;8.23;5.87;;;20.10;99.90;;;;;;5098251;28;20457;-63
2023/10/03 10:02:16;;;;;;;6.90;5.10;;;20.10;99.90;;;;;;5102476;28;20501;-63
2023/10/03 10:04:50;;;;;;;5.40;4.20;;;20.10;99.90;;;;;;5103319;28;20830;-64
2023/10/03 10:07:35;;;;;;;6.07;4.20;;;20.00;99.90;;;;;;5102828;28;20516;-63
2023/10/03 10:10:14;;;;;;;6.17;4.70;;;20.10;99.90;;;;;;5103225;28;20418;-62
2023/10/03 10:13:13;;;;;;;7.27;5.13;;;20.00;99.90;;;;;;5102962;28;20915;-63
2023/10/03 10:16:00;;;;;;;6.57;5.47;;;20.10;99.90;;;;;;5097473;28;21077;-63
2023/10/03 10:18:44;;;;;;;10.80;4.63;;;20.00;99.90;;;;;;5100779;28;20448;-63
2023/10/03 10:21:36;;;;;;;7.13;4.70;;;20.00;99.90;;;;;;5102093;28;20468;-63
2023/10/03 10:24:20;;;;;;;6.87;4.93;;;19.90;99.90;;;;;;5095813;28;20496;-63
2023/10/03 10:26:53;;;;;;;6.87;4.77;;;19.90;99.90;;;;;;5095580;28;20757;-64
2023/10/03 10:29:24;;;;;;;5.87;5.00;;;19.90;99.90;;;;;;5102476;28;20429;-64
2023/10/03 10:31:58;;;;;;;5.20;4.60;;;19.90;99.90;;;;;;5103319;28;21436;-64
2023/10/03 10:34:27;;;;;;;8.03;5.53;;;19.80;99.90;;;;;;5099911;28;20425;-64
2023/10/03 10:37:09;;;;;;;7.60;5.77;;;19.80;99.90;;;;;;5102934;28;20417;-64
2023/10/03 10:39:53;;;;;;;6.50;5.90;;;19.50;99.90;;;;;;5103262;28;20454;-63
2023/10/03 10:42:24;;;;;;;7.77;6.40;;;19.40;99.90;;;;;;5101975;28;20460;-64
2023/10/03 10:45:16;;;;;;;7.00;6.33;;;19.30;99.90;;;;;;5102563;28;20421;-64
2023/10/03 10:47:46;;;;;;;9.40;7.40;;;19.10;99.90;;;;;;5086309;28;20433;-64
2023/10/03 10:50:12;;;;;;;7.83;7.13;;;19.00;99.90;;;;;;5102065;28;20453;-64
2023/10/03 10:53:01;;;;;;;10.17;6.87;;;18.90;99.90;;;;;;5102818;28;20505;-64
2023/10/03 10:55:27;;;;;;;9.20;8.50;;;18.80;99.90;;;;;;5102339;28;20461;-64
2023/10/03 10:58:07;;;;;;;7.70;7.00;;;18.80;99.90;;;;;;5102697;28;20429;-64
2023/10/03 11:00:33;;;;;;;8.77;7.73;;;18.60;99.90;;;;;;5101784;28;20433;-63
2023/10/03 11:03:06;;;;;;;8.60;7.70;;;18.60;99.90;;;;;;5102613;28;20460;-64
2023/10/03 11:05:43;;;;;;;8.77;7.60;;;18.60;99.90;;;;;;5102694;28;20434;-64
2023/10/03 11:08:09;;;;;;;9.60;8.80;;;18.50;99.90;;;;;;5081636;28;20432;-64
2023/10/03 11:10:35;;;;;;;9.63;8.63;;;18.50;99.90;;;;;;5106149;28;20469;-64
2023/10/03 11:13:04;;;;;;;10.70;8.93;;;18.50;99.90;;;;;;5106015;28;20191;-63
2023/10/03 11:15:30;;;;;;;9.67;8.77;;;18.40;99.90;;;;;;5105838;28;20281;-64
2023/10/03 11:17:58;;;;;;;11.37;10.00;;;18.40;99.90;;;;;;5106284;28;20417;-64
2023/10/03 11:20:26;;;;;;;11.83;9.03;;;18.40;99.90;;;;;;5105742;28;20426;-64
2023/10/03 11:22:51;;;;;;;12.60;9.60;;;18.40;99.90;;;;;;5106137;28;20517;-64
2023/10/03 11:25:18;;;;;;;9.83;8.93;;;18.40;99.90;;;;;;5105186;28;20421;-64
2023/10/03 11:27:43;;;;;;;10.03;8.80;;;18.40;99.90;;;;;;5105664;28;20214;-64
2023/10/03 11:30:17;;;;;;;9.40;8.47;;;18.40;99.90;;;;;;5105049;28;20429;-64
2023/10/03 11:32:43;;;;;;;9.20;8.30;;;18.50;99.90;;;;;;5105057;28;20172;-64
2023/10/03 11:35:20;;;;;;;7.43;6.73;;;18.40;99.90;;;;;;5105238;28;20816;-64
2023/10/03 11:37:47;;;;;;;7.07;6.47;;;18.40;99.90;;;;;;5105905;28;20179;-64
2023/10/03 11:40:16;;;;;;;6.30;5.40;;;18.40;99.90;;;;;;5105076;28;20509;-64
2023/10/03 11:42:52;;;;;;;5.83;5.13;;;18.50;99.90;;;;;;5103959;28;20458;-64
2023/10/03 11:45:28;;;;;;;4.17;3.80;;;18.50;99.90;;;;;;5104736;28;20542;-63
2023/10/03 11:48:07;;;;;;;4.00;3.17;;;18.50;99.90;;;;;;5105934;28;20568;-64
2023/10/03 11:50:36;;;;;;;3.00;2.40;;;18.40;99.90;;;;;;5104334;28;20476;-64
2023/10/03 11:53:03;;;;;;;3.97;2.03;;;18.50;99.90;;;;;;5104979;28;20429;-63
2023/10/03 11:55:32;;;;;;;2.40;2.07;;;18.50;99.90;;;;;;5105344;28;20432;-64
2023/10/03 11:57:59;;;;;;;2.27;1.57;;;18.50;99.90;;;;;;5105128;28;20425;-63
2023/10/03 12:00:24;;;;;;;1.90;1.73;;;18.40;99.90;;;;;;5104929;28;20548;-64
2023/10/03 12:02:52;;;;;;;2.83;2.10;;;18.40;99.90;;;;;;5104806;28;20428;-64
2023/10/03 12:05:18;;;;;;;2.00;1.10;;;18.40;99.90;;;;;;5104643;28;20241;-64
2023/10/03 12:07:46;;;;;;;2.40;1.37;;;18.40;99.90;;;;;;5105161;28;20425;-64
2023/10/03 12:10:12;;;;;;;2.00;1.30;;;18.30;99.90;;;;;;5104305;28;21129;-64
2023/10/03 12:12:42;;;;;;;1.57;1.03;;;18.30;99.90;;;;;;5105282;28;20433;-64
2023/10/03 12:15:12;;;;;;;1.83;1.50;;;18.30;99.90;;;;;;5104369;28;20429;-64
2023/10/03 12:17:46;;;;;;;4.50;1.83;;;18.30;99.90;;;;;;5105104;28;20795;-64
2023/10/03 12:20:13;;;;;;;2.20;1.50;;;18.40;99.90;;;;;;5104110;28;20433;-64
2023/10/03 12:22:44;;;;;;;4.57;2.17;;;18.40;99.90;;;;;;5104724;28;20519;-64
2023/10/03 12:25:11;;;;;;;4.40;1.93;;;18.30;99.90;;;;;;5104409;28;20499;-64
2023/10/03 12:27:38;;;;;;;3.20;2.07;;;18.20;99.90;;;;;;5104220;28;20422;-64
2023/10/03 12:30:06;;;;;;;2.70;2.03;;;18.20;99.90;;;;;;5103929;28;20437;-64
2023/10/03 12:32:36;;;;;;;2.17;1.60;;;18.10;99.90;;;;;;5104774;28;20466;-64
2023/10/03 12:35:03;;;;;;;2.20;1.53;;;18.10;99.90;;;;;;5103965;28;20425;-64
2023/10/03 12:37:30;;;;;;;4.93;1.67;;;18.00;99.90;;;;;;5104524;28;20492;-64
2023/10/03 12:40:01;;;;;;;1.77;1.30;;;17.90;99.90;;;;;;5104604;28;20418;-64
2023/10/03 12:42:28;;;;;;;2.20;1.27;;;18.00;99.90;;;;;;5102364;28;20477;-64
2023/10/03 12:44:56;;;;;;;1.33;1.07;;;17.90;99.90;;;;;;5104444;28;20551;-64
2023/10/03 12:47:23;;;;;;;1.50;0.50;;;18.00;99.90;;;;;;5101289;28;20455;-64
2023/10/03 12:49:49;;;;;;;2.07;0.87;;;17.90;99.90;;;;;;5104616;28;20434;-64
2023/10/03 12:52:14;;;;;;;1.10;0.67;;;17.90;99.90;;;;;;5099842;28;20530;-64
2023/10/03 12:54:40;;;;;;;1.60;0.60;;;17.90;99.90;;;;;;5104231;28;20188;-64
2023/10/03 12:57:06;;;;;;;4.47;1.00;;;17.90;99.90;;;;;;5103779;28;20203;-64